createdAt,value
2022-09-18T00:00:50.539Z,98404.41
2022-09-18T00:03:54.910Z,98406.88
2022-09-18T00:06:59.584Z,98405.47
2022-09-18T00:10:01.266Z,98413.00
2022-09-18T00:13:03.153Z,98414.84
2022-09-18T00:16:07.775Z,98407.69
2022-09-18T00:19:11.074Z,98407.69
2022-09-18T00:22:12.815Z,98421.09
2022-09-18T00:25:14.540Z,98404.66
2022-09-18T00:28:16.304Z,98414.84
2022-09-18T00:31:27.875Z,98417.78
2022-09-18T00:34:29.829Z,98417.84
2022-09-18T00:37:31.596Z,98417.03
2022-09-18T00:40:33.581Z,98424.19
2022-09-18T00:43:37.537Z,98424.19
2022-09-18T00:46:39.374Z,98430.72
2022-09-18T00:50:04.451Z,98413.94
2022-09-18T00:53:06.400Z,98419.81
2022-09-18T00:56:12.763Z,98413.56
2022-09-18T00:59:18.865Z,98424.97
2022-09-18T01:02:21.165Z,98425.16
2022-09-18T01:06:02.915Z,98421.38
2022-09-18T01:09:28.589Z,98418.53
2022-09-18T01:12:42.822Z,98432.59
2022-09-18T01:16:13.659Z,98421.00
2022-09-18T01:19:38.986Z,98421.13
2022-09-18T01:22:59.602Z,98436.44
2022-09-18T01:26:01.739Z,98444.63
2022-09-18T01:29:35.013Z,98445.16
2022-09-18T01:32:43.791Z,98430.28
2022-09-18T01:35:54.091Z,98426.06
2022-09-18T01:39:02.964Z,98455.28
2022-09-18T01:42:07.117Z,98467.56
2022-09-18T01:45:13.813Z,98478.94
2022-09-18T01:48:29.211Z,98474.09
2022-09-18T01:51:39.086Z,98484.63
2022-09-18T01:54:44.441Z,98485.84
2022-09-18T01:58:17.421Z,98497.84
2022-09-18T02:01:23.126Z,98503.09
2022-09-18T02:04:30.951Z,98501.53
2022-09-18T02:07:43.550Z,98506.88
2022-09-18T02:10:52.432Z,98505.03
2022-09-18T02:14:13.149Z,98506.66
2022-09-18T02:17:53.567Z,98515.03
2022-09-18T02:21:01.693Z,98500.59
2022-09-18T02:24:08.522Z,98511.50
2022-09-18T02:27:13.580Z,98525.78
2022-09-18T02:30:15.591Z,98523.88
2022-09-18T02:33:43.851Z,98532.06
2022-09-18T02:37:10.615Z,98521.47
2022-09-18T02:40:43.092Z,98514.97
2022-09-18T02:43:58.915Z,98519.19
2022-09-18T02:47:14.787Z,98519.34
2022-09-18T02:50:35.539Z,98518.97
2022-09-18T02:54:00.417Z,98515.00
2022-09-18T02:57:27.036Z,98511.81
2022-09-18T03:00:31.817Z,98519.91
2022-09-18T03:03:41.438Z,98521.44
2022-09-18T03:06:45.445Z,98509.34
2022-09-18T03:09:47.540Z,98514.94
2022-09-18T03:12:50.739Z,98519.63
2022-09-18T03:15:52.562Z,98519.16
2022-09-18T03:18:54.745Z,98519.41
2022-09-18T03:21:56.973Z,98526.09
2022-09-18T03:24:59.551Z,98524.91
2022-09-18T03:28:03.202Z,98514.09
2022-09-18T03:31:11.488Z,98523.38
2022-09-18T03:34:13.329Z,98530.41
2022-09-18T03:37:15.761Z,98522.91
2022-09-18T03:40:18.661Z,98525.38
2022-09-18T03:43:20.543Z,98519.34
2022-09-18T03:46:24.634Z,98522.91
2022-09-18T03:49:30.205Z,98527.56
2022-09-18T03:52:32.097Z,98525.91
2022-09-18T03:55:52.148Z,98519.47
2022-09-18T03:59:13.975Z,98517.00
2022-09-18T04:02:47.780Z,98524.16
2022-09-18T04:06:08.321Z,98523.44
2022-09-18T04:09:45.309Z,98514.09
2022-09-18T04:12:47.927Z,98508.19
2022-09-18T04:15:55.911Z,98522.13
2022-09-18T04:18:57.667Z,98525.06
2022-09-18T04:21:59.432Z,98535.75
2022-09-18T04:25:01.534Z,98532.91
2022-09-18T04:28:03.329Z,98531.25
2022-09-18T04:31:06.449Z,98544.53
2022-09-18T04:34:08.384Z,98542.06
2022-09-18T04:37:10.751Z,98539.50
2022-09-18T04:40:13.832Z,98551.03
2022-09-18T04:43:16.007Z,98548.78
2022-09-18T04:46:19.142Z,98545.56
2022-09-18T04:49:20.996Z,98544.41
2022-09-18T04:52:23.523Z,98556.88
2022-09-18T04:55:25.786Z,98546.72
2022-09-18T04:58:27.703Z,98553.13
2022-09-18T05:01:35.842Z,98552.75
2022-09-18T05:04:44.557Z,98560.47
2022-09-18T05:08:04.839Z,98564.44
2022-09-18T05:11:06.705Z,98569.09
2022-09-18T05:14:11.697Z,98563.97
2022-09-18T05:17:18.073Z,98566.06
2022-09-18T05:20:37.643Z,98579.75
2022-09-18T05:23:43.268Z,98576.06
2022-09-18T05:26:46.192Z,98583.97
2022-09-18T05:29:48.071Z,98581.13
2022-09-18T05:33:09.897Z,98580.84
2022-09-18T05:36:14.266Z,98590.88
2022-09-18T05:39:17.784Z,98591.59
2022-09-18T05:42:20.110Z,98596.94
2022-09-18T05:45:22.906Z,98596.09
2022-09-18T05:48:25.138Z,98587.25
2022-09-18T05:51:26.905Z,98580.53
2022-09-18T05:54:28.808Z,98587.28
2022-09-18T05:57:32.588Z,98573.63
2022-09-18T06:00:35.491Z,98577.78
2022-09-18T06:03:45.743Z,98580.50
2022-09-18T06:06:48.038Z,98586.16
2022-09-18T06:09:50.087Z,98586.03
2022-09-18T06:13:07.271Z,98581.31
2022-09-18T06:16:14.336Z,98587.59
2022-09-18T06:19:26.855Z,98577.75
2022-09-18T06:22:28.627Z,98586.25
2022-09-18T06:25:32.043Z,98588.47
2022-09-18T06:28:37.084Z,98590.03
2022-09-18T06:31:39.916Z,98591.22
2022-09-18T06:34:44.351Z,98600.59
2022-09-18T06:37:48.309Z,98599.09
2022-09-18T06:41:02.007Z,98596.66
2022-09-18T06:44:33.306Z,98598.13
2022-09-18T06:47:40.449Z,98597.50
2022-09-18T06:50:43.377Z,98602.25
2022-09-18T06:53:45.222Z,98607.41
2022-09-18T06:56:47.813Z,98613.75
2022-09-18T06:59:51.271Z,98620.84
2022-09-18T07:02:58.011Z,98626.25
2022-09-18T07:06:18.496Z,98618.22
2022-09-18T07:09:23.035Z,98606.06
2022-09-18T07:12:31.720Z,98623.31
2022-09-18T07:15:33.738Z,98618.47
2022-09-18T07:18:35.958Z,98621.59
2022-09-18T07:21:40.137Z,98627.59
2022-09-18T07:24:42.144Z,98615.78
2022-09-18T07:27:43.964Z,98622.16
2022-09-18T07:30:48.493Z,98635.75
2022-09-18T07:33:54.747Z,98621.19
2022-09-18T07:37:00.247Z,98636.59
2022-09-18T07:40:03.727Z,98625.00
2022-09-18T07:43:24.269Z,98636.59
2022-09-18T07:46:29.038Z,98644.19
2022-09-18T07:49:37.593Z,98654.34
2022-09-18T07:52:51.014Z,98642.41
2022-09-18T07:55:55.799Z,98652.31
2022-09-18T07:58:59.449Z,98645.72
2022-09-18T08:02:04.887Z,98658.88
2022-09-18T08:05:08.385Z,98668.72
2022-09-18T08:08:15.926Z,98669.59
2022-09-18T08:11:37.952Z,98678.03
2022-09-18T08:15:02.800Z,98681.59
2022-09-18T08:18:39.499Z,98692.31
2022-09-18T08:21:51.514Z,98689.78
2022-09-18T08:24:53.304Z,98699.53
2022-09-18T08:27:58.989Z,98687.50
2022-09-18T08:31:16.378Z,98693.06
2022-09-18T08:34:20.475Z,98696.13
2022-09-18T08:37:22.449Z,98696.28
2022-09-18T08:40:42.895Z,98685.25
2022-09-18T08:44:11.384Z,98683.81
2022-09-18T08:47:25.575Z,98677.56
2022-09-18T08:50:38.738Z,98673.88
2022-09-18T08:53:50.901Z,98667.94
2022-09-18T08:57:15.247Z,98683.53
2022-09-18T09:00:53.872Z,98671.81
2022-09-18T09:04:24.556Z,98677.34
2022-09-18T09:08:00.875Z,98680.31
2022-09-18T09:11:38.055Z,98673.53
2022-09-18T09:14:57.094Z,98666.91
2022-09-18T09:18:18.620Z,98677.88
2022-09-18T09:21:24.923Z,98681.19
2022-09-18T09:24:39.978Z,98674.34
2022-09-18T09:28:04.979Z,98678.66
2022-09-18T09:31:40.955Z,98680.13
2022-09-18T09:35:22.896Z,98697.25
2022-09-18T09:39:23.928Z,98685.91
2022-09-18T09:42:42.769Z,98677.03
2022-09-18T09:45:50.553Z,98705.72
2022-09-18T09:49:05.376Z,98709.28
2022-09-18T09:52:19.327Z,98694.97
2022-09-18T09:55:30.392Z,98706.38
2022-09-18T09:59:11.284Z,98710.94
2022-09-18T10:02:37.630Z,98720.31
2022-09-18T10:05:53.492Z,98703.00
2022-09-18T10:09:07.929Z,98696.69
2022-09-18T10:12:36.907Z,98690.66
2022-09-18T10:15:43.644Z,98677.34
2022-09-18T10:18:50.249Z,98678.81
2022-09-18T10:21:56.033Z,98692.84
2022-09-18T10:25:04.273Z,98694.09
2022-09-18T10:28:12.793Z,98703.88
2022-09-18T10:31:16.356Z,98702.81
2022-09-18T10:34:40.890Z,98706.97
2022-09-18T10:37:43.462Z,98741.53
2022-09-18T10:40:55.531Z,98739.53
2022-09-18T10:44:19.250Z,98738.81
2022-09-18T10:47:25.703Z,98737.34
2022-09-18T10:50:31.299Z,98744.78
2022-09-18T10:53:42.454Z,98736.78
2022-09-18T10:56:50.828Z,98736.63
2022-09-18T10:59:52.891Z,98730.69
2022-09-18T11:03:03.409Z,98731.66
2022-09-18T11:06:25.528Z,98737.56
2022-09-18T11:09:38.175Z,98731.28
2022-09-18T11:12:53.503Z,98717.44
2022-09-18T11:16:03.571Z,98711.25
2022-09-18T11:19:12.655Z,98701.09
2022-09-18T11:22:50.549Z,98705.31
2022-09-18T11:26:20.105Z,98695.81
2022-09-18T11:29:33.045Z,98693.53
2022-09-18T11:32:36.003Z,98691.25
2022-09-18T11:35:46.197Z,98690.66
2022-09-18T11:38:49.986Z,98698.06
2022-09-18T11:41:54.178Z,98675.06
2022-09-18T11:45:09.543Z,98681.22
2022-09-18T11:48:11.427Z,98682.28
2022-09-18T11:51:33.940Z,98685.69
2022-09-18T11:54:52.868Z,98675.81
2022-09-18T11:58:17.136Z,98676.59
2022-09-18T12:01:40.170Z,98677.81
2022-09-18T12:04:53.082Z,98680.28
2022-09-18T12:07:57.674Z,98690.25
2022-09-18T12:11:17.647Z,98696.72
2022-09-18T12:14:41.713Z,98706.72
2022-09-18T12:18:20.364Z,98718.22
2022-09-18T12:21:34.674Z,98717.78
2022-09-18T12:24:36.797Z,98724.03
2022-09-18T12:27:45.828Z,98722.47
2022-09-18T12:31:17.753Z,98725.22
2022-09-18T12:34:28.223Z,98717.16
2022-09-18T12:37:45.682Z,98717.16
2022-09-18T12:41:14.300Z,98696.72
2022-09-18T12:44:16.321Z,98697.41
2022-09-18T12:47:24.072Z,98683.00
2022-09-18T12:50:25.707Z,98682.91
2022-09-18T12:53:33.552Z,98692.34
2022-09-18T12:56:58.195Z,98698.06
2022-09-18T13:00:10.763Z,98664.97
2022-09-18T13:03:30.028Z,98676.94
2022-09-18T13:06:40.091Z,98672.84
2022-09-18T13:09:53.757Z,98668.91
2022-09-18T13:13:12.222Z,98656.16
2022-09-18T13:16:35.331Z,98659.34
2022-09-18T13:20:03.585Z,98660.44
2022-09-18T13:23:07.065Z,98663.53
2022-09-18T13:26:13.035Z,98664.50
2022-09-18T13:29:51.942Z,98670.47
2022-09-18T13:32:54.575Z,98662.78
2022-09-18T13:35:57.770Z,98673.94
2022-09-18T13:39:04.729Z,98669.91
2022-09-18T13:42:06.480Z,98678.97
2022-09-18T13:45:20.387Z,98697.19
2022-09-18T13:48:36.325Z,98686.19
2022-09-18T13:51:38.647Z,98702.47
2022-09-18T13:54:54.716Z,98705.81
2022-09-18T13:58:35.300Z,98698.19
2022-09-18T14:01:40.053Z,98700.22
2022-09-18T14:04:43.569Z,98699.41
2022-09-18T14:07:52.179Z,98693.97
2022-09-18T14:11:14.966Z,98701.75
2022-09-18T14:14:24.213Z,98699.84
2022-09-18T14:17:26.934Z,98694.72
2022-09-18T14:20:28.974Z,98700.78
2022-09-18T14:23:34.299Z,98706.91
2022-09-18T14:26:37.538Z,98701.53
2022-09-18T14:29:39.857Z,98701.63
2022-09-18T14:32:48.799Z,98689.47
2022-09-18T14:35:54.454Z,98691.34
2022-09-18T14:38:56.811Z,98683.84
2022-09-18T14:42:03.630Z,98691.25
2022-09-18T14:45:08.643Z,98677.66
2022-09-18T14:48:35.150Z,98686.31
2022-09-18T14:52:02.783Z,98678.94
2022-09-18T14:55:11.809Z,98669.47
2022-09-18T14:58:18.470Z,98675.72
2022-09-18T15:01:30.163Z,98672.38
2022-09-18T15:04:31.978Z,98674.84
2022-09-18T15:07:34.999Z,98673.56
2022-09-18T15:10:39.636Z,98671.09
2022-09-18T15:13:42.673Z,98671.66
2022-09-18T15:16:55.244Z,98667.16
2022-09-18T15:19:59.500Z,98666.09
2022-09-18T15:23:17.635Z,98659.69
2022-09-18T15:26:23.319Z,98675.19
2022-09-18T15:29:31.139Z,98670.25
2022-09-18T15:32:45.707Z,98662.88
2022-09-18T15:35:51.716Z,98670.97
2022-09-18T15:38:54.939Z,98664.75
2022-09-18T15:42:11.585Z,98667.94
2022-09-18T15:45:18.809Z,98672.47
2022-09-18T15:48:39.364Z,98661.13
2022-09-18T15:51:41.146Z,98669.75
2022-09-18T15:55:03.377Z,98677.44
2022-09-18T15:58:24.442Z,98673.31
2022-09-18T16:01:31.766Z,98676.22
2022-09-18T16:04:35.759Z,98665.91
2022-09-18T16:07:39.623Z,98683.25
2022-09-18T16:10:41.834Z,98678.72
2022-09-18T16:13:43.548Z,98670.06
2022-09-18T16:16:45.270Z,98664.72
2022-09-18T16:19:47.064Z,98674.16
2022-09-18T16:22:51.338Z,98671.66
2022-09-18T16:26:13.759Z,98667.97
2022-09-18T16:29:24.723Z,98680.72
2022-09-18T16:32:26.412Z,98683.38
2022-09-18T16:35:28.143Z,98680.72
2022-09-18T16:38:31.298Z,98682.06
2022-09-18T16:41:34.126Z,98689.28
2022-09-18T16:44:35.998Z,98691.31
2022-09-18T16:47:44.133Z,98692.91
2022-09-18T16:50:47.529Z,98695.75
2022-09-18T16:53:49.718Z,98698.56
2022-09-18T16:56:55.384Z,98699.38
2022-09-18T17:00:01.894Z,98694.63
2022-09-18T17:03:07.385Z,98699.31
2022-09-18T17:06:09.139Z,98708.88
2022-09-18T17:09:10.943Z,98708.28
2022-09-18T17:12:12.946Z,98709.53
2022-09-18T17:15:14.753Z,98711.16
2022-09-18T17:18:16.934Z,98711.53
2022-09-18T17:21:18.636Z,98713.16
2022-09-18T17:24:25.572Z,98718.53
2022-09-18T17:27:27.461Z,98708.50
2022-09-18T17:30:29.286Z,98717.69
2022-09-18T17:33:31.062Z,98712.78
2022-09-18T17:36:35.994Z,98710.69
2022-09-18T17:39:37.770Z,98709.44
2022-09-18T17:42:39.675Z,98715.22
2022-09-18T17:45:41.495Z,98730.34
2022-09-18T17:48:43.225Z,98726.25
2022-09-18T17:51:45.443Z,98739.00
2022-09-18T17:54:47.148Z,98731.72
2022-09-18T17:57:52.864Z,98727.72
2022-09-18T18:00:55.306Z,98724.88
2022-09-18T18:03:57.952Z,98721.56
2022-09-18T18:07:00.078Z,98734.31
2022-09-18T18:10:01.763Z,98736.97
2022-09-18T18:13:03.552Z,98737.16
2022-09-18T18:16:09.189Z,98735.25
2022-09-18T18:19:12.964Z,98743.28
2022-09-18T18:22:14.650Z,98740.34
2022-09-18T18:25:16.402Z,98732.53
2022-09-18T18:28:18.266Z,98721.84
2022-09-18T18:31:19.995Z,98724.72
2022-09-18T18:34:22.354Z,98714.47
2022-09-18T18:37:24.156Z,98724.16
2022-09-18T18:40:27.085Z,98716.50
2022-09-18T18:43:29.513Z,98719.19
2022-09-18T18:46:36.238Z,98713.63
2022-09-18T18:49:38.210Z,98706.63
2022-09-18T18:52:39.972Z,98714.66
2022-09-18T18:55:48.252Z,98709.13
2022-09-18T18:58:55.813Z,98709.97
2022-09-18T19:01:59.024Z,98699.06
2022-09-18T19:05:02.916Z,98702.13
2022-09-18T19:08:04.624Z,98691.44
2022-09-18T19:11:07.432Z,98694.31
2022-09-18T19:14:16.558Z,98690.81
2022-09-18T19:17:18.366Z,98692.66
2022-09-18T19:20:20.055Z,98689.59
2022-09-18T19:23:21.790Z,98690.41
2022-09-18T19:26:25.401Z,98687.13
2022-09-18T19:29:27.910Z,98679.09
2022-09-18T19:32:29.621Z,98665.31
2022-09-18T19:35:35.455Z,98682.16
2022-09-18T19:38:37.165Z,98681.53
2022-09-18T19:42:03.164Z,98680.72
2022-09-18T19:45:05.755Z,98668.75
2022-09-18T19:48:11.562Z,98667.56
2022-09-18T19:51:13.286Z,98684.78
2022-09-18T19:54:15.532Z,98681.47
2022-09-18T19:57:19.137Z,98677.34
2022-09-18T20:00:20.889Z,98677.16
2022-09-18T20:03:22.636Z,98685.34
2022-09-18T20:06:24.823Z,98680.22
2022-09-18T20:09:29.196Z,98669.53
2022-09-18T20:12:35.287Z,98669.31
2022-09-18T20:15:37.381Z,98667.94
2022-09-18T20:18:39.581Z,98673.06
2022-09-18T20:21:41.699Z,98663.44
2022-09-18T20:24:43.596Z,98658.97
2022-09-18T20:27:45.306Z,98659.03
2022-09-18T20:30:46.993Z,98654.16
2022-09-18T20:33:55.030Z,98646.41
2022-09-18T20:36:56.819Z,98655.28
2022-09-18T20:40:03.034Z,98656.75
2022-09-18T20:43:05.610Z,98657.19
2022-09-18T20:46:13.374Z,98657.19
2022-09-18T20:49:18.026Z,98652.47
2022-09-18T20:52:20.230Z,98649.56
2022-09-18T20:55:22.380Z,98654.31
2022-09-18T20:58:24.211Z,98658.00
2022-09-18T21:01:27.871Z,98656.38
2022-09-18T21:04:29.718Z,98653.28
2022-09-18T21:07:32.372Z,98660.69
2022-09-18T21:10:34.096Z,98659.44
2022-09-18T21:13:35.998Z,98652.47
2022-09-18T21:16:42.793Z,98651.44
2022-09-18T21:19:48.537Z,98648.16
2022-09-18T21:23:10.610Z,98644.44
2022-09-18T21:26:17.336Z,98645.69
2022-09-18T21:29:25.163Z,98646.88
2022-09-18T21:32:26.957Z,98637.81
2022-09-18T21:35:28.670Z,98640.69
2022-09-18T21:38:30.798Z,98641.91
2022-09-18T21:41:37.751Z,98636.97
2022-09-18T21:44:39.686Z,98631.22
2022-09-18T21:47:41.438Z,98630.41
2022-09-18T21:50:43.089Z,98630.81
2022-09-18T21:53:45.376Z,98625.22
2022-09-18T21:56:54.156Z,98622.16
2022-09-18T21:59:56.116Z,98625.41
2022-09-18T22:02:59.540Z,98613.88
2022-09-18T22:06:01.991Z,98630.75
2022-09-18T22:09:09.074Z,98626.25
2022-09-18T22:12:12.439Z,98619.25
2022-09-18T22:15:14.204Z,98622.13
2022-09-18T22:18:15.914Z,98621.91
2022-09-18T22:21:30.684Z,98620.69
2022-09-18T22:24:32.490Z,98632.34
2022-09-18T22:27:34.226Z,98633.84
2022-09-18T22:30:39.514Z,98620.03
2022-09-18T22:33:41.288Z,98623.69
2022-09-18T22:36:44.168Z,98623.03
2022-09-18T22:39:47.085Z,98625.47
2022-09-18T22:42:48.992Z,98624.66
2022-09-18T22:45:50.780Z,98618.69
2022-09-18T22:48:52.773Z,98602.22
2022-09-18T22:51:54.924Z,98603.69
2022-09-18T22:54:56.708Z,98607.19
2022-09-18T22:57:58.583Z,98604.69
2022-09-18T23:01:15.540Z,98602.22
2022-09-18T23:04:19.476Z,98603.81
2022-09-18T23:07:21.178Z,98592.94
2022-09-18T23:10:22.886Z,98593.13
2022-09-18T23:13:24.854Z,98592.28
2022-09-18T23:16:28.855Z,98598.44
2022-09-18T23:19:33.748Z,98582.78
2022-09-18T23:22:35.640Z,98568.00
2022-09-18T23:25:37.871Z,98562.59
2022-09-18T23:28:43.881Z,98577.78
2022-09-18T23:31:50.326Z,98576.16
2022-09-18T23:34:51.999Z,98571.47
2022-09-18T23:37:54.813Z,98567.75
2022-09-18T23:41:05.195Z,98566.53
2022-09-18T23:44:09.279Z,98567.19
2022-09-18T23:47:11.069Z,98577.25
2022-09-18T23:50:12.767Z,98568.41
2022-09-18T23:53:14.447Z,98572.56
2022-09-18T23:56:19.182Z,98574.16
2022-09-18T23:59:23.321Z,98566.41
